sensor_id;sensor_type;location;lat;lon;timestamp;P1;durP1;ratioP1;P2;durP2;ratioP2
9140;SDS011;46330;50.822;7.126;2022-12-22T00:03:41;3.88;;;2.60;;
9140;SDS011;46330;50.822;7.126;2022-12-22T00:09:13;4.78;;;2.20;;
9140;SDS011;46330;50.822;7.126;2022-12-22T00:11:58;4.55;;;2.60;;
9140;SDS011;46330;50.822;7.126;2022-12-22T00:14:44;4.10;;;2.45;;
9140;SDS011;46330;50.822;7.126;2022-12-22T00:17:30;5.20;;;2.30;;
9140;SDS011;46330;50.822;7.126;2022-12-22T00:23:02;2.58;;;2.03;;
9140;SDS011;46330;50.822;7.126;2022-12-22T00:25:49;3.25;;;2.10;;
9140;SDS011;46330;50.822;7.126;2022-12-22T00:28:35;3.60;;;2.20;;
9140;SDS011;46330;50.822;7.126;2022-12-22T00:31:21;3.28;;;2.20;;
9140;SDS011;46330;50.822;7.126;2022-12-22T00:34:08;2.80;;;2.10;;
9140;SDS011;46330;50.822;7.126;2022-12-22T00:36:58;2.97;;;2.35;;
9140;SDS011;46330;50.822;7.126;2022-12-22T00:39:44;2.65;;;1.92;;
9140;SDS011;46330;50.822;7.126;2022-12-22T00:42:30;2.63;;;1.70;;
9140;SDS011;46330;50.822;7.126;2022-12-22T00:45:16;2.63;;;1.85;;
9140;SDS011;46330;50.822;7.126;2022-12-22T00:48:01;2.80;;;2.00;;
9140;SDS011;46330;50.822;7.126;2022-12-22T00:50:48;2.13;;;1.92;;
9140;SDS011;46330;50.822;7.126;2022-12-22T00:53:34;2.08;;;1.88;;
9140;SDS011;46330;50.822;7.126;2022-12-22T00:56:19;4.22;;;1.90;;
9140;SDS011;46330;50.822;7.126;2022-12-22T00:59:07;2.97;;;1.90;;
9140;SDS011;46330;50.822;7.126;2022-12-22T01:01:53;3.05;;;1.88;;
9140;SDS011;46330;50.822;7.126;2022-12-22T01:04:39;2.13;;;1.85;;
9140;SDS011;46330;50.822;7.126;2022-12-22T01:10:11;2.90;;;1.92;;
9140;SDS011;46330;50.822;7.126;2022-12-22T01:12:57;1.80;;;1.70;;
9140;SDS011;46330;50.822;7.126;2022-12-22T01:18:29;1.67;;;1.50;;
9140;SDS011;46330;50.822;7.126;2022-12-22T01:21:14;1.95;;;1.60;;
9140;SDS011;46330;50.822;7.126;2022-12-22T01:24:00;4.07;;;1.65;;
9140;SDS011;46330;50.822;7.126;2022-12-22T01:29:31;3.00;;;1.50;;
9140;SDS011;46330;50.822;7.126;2022-12-22T01:35:03;2.05;;;1.70;;
9140;SDS011;46330;50.822;7.126;2022-12-22T01:37:50;6.78;;;2.20;;
9140;SDS011;46330;50.822;7.126;2022-12-22T01:43:21;3.03;;;1.90;;
9140;SDS011;46330;50.822;7.126;2022-12-22T01:46:20;5.65;;;1.92;;
9140;SDS011;46330;50.822;7.126;2022-12-22T01:49:09;2.88;;;1.42;;
9140;SDS011;46330;50.822;7.126;2022-12-22T01:51:56;3.13;;;1.65;;
9140;SDS011;46330;50.822;7.126;2022-12-22T01:57:27;1.92;;;1.40;;
9140;SDS011;46330;50.822;7.126;2022-12-22T02:00:14;2.10;;;1.50;;
9140;SDS011;46330;50.822;7.126;2022-12-22T02:02:59;3.45;;;1.40;;
9140;SDS011;46330;50.822;7.126;2022-12-22T02:05:49;2.15;;;1.27;;
9140;SDS011;46330;50.822;7.126;2022-12-22T02:08:41;1.40;;;1.30;;
9140;SDS011;46330;50.822;7.126;2022-12-22T02:11:41;1.35;;;1.17;;
9140;SDS011;46330;50.822;7.126;2022-12-22T02:14:35;1.88;;;1.33;;
9140;SDS011;46330;50.822;7.126;2022-12-22T02:17:30;3.15;;;1.40;;
9140;SDS011;46330;50.822;7.126;2022-12-22T02:23:33;3.83;;;1.50;;
9140;SDS011;46330;50.822;7.126;2022-12-22T02:26:40;2.00;;;1.30;;
9140;SDS011;46330;50.822;7.126;2022-12-22T02:29:29;1.60;;;1.10;;
9140;SDS011;46330;50.822;7.126;2022-12-22T02:32:19;3.78;;;1.55;;
9140;SDS011;46330;50.822;7.126;2022-12-22T02:35:09;1.75;;;1.30;;
9140;SDS011;46330;50.822;7.126;2022-12-22T02:37:57;1.38;;;1.27;;
9140;SDS011;46330;50.822;7.126;2022-12-22T02:40:53;2.28;;;1.35;;
9140;SDS011;46330;50.822;7.126;2022-12-22T02:44:01;1.73;;;1.23;;
9140;SDS011;46330;50.822;7.126;2022-12-22T02:46:58;1.50;;;1.13;;
9140;SDS011;46330;50.822;7.126;2022-12-22T02:49:49;2.38;;;1.42;;
9140;SDS011;46330;50.822;7.126;2022-12-22T02:52:38;2.35;;;1.33;;
9140;SDS011;46330;50.822;7.126;2022-12-22T02:55:27;2.20;;;1.40;;
9140;SDS011;46330;50.822;7.126;2022-12-22T02:58:13;2.72;;;1.60;;
9140;SDS011;46330;50.822;7.126;2022-12-22T03:01:01;1.85;;;1.30;;
9140;SDS011;46330;50.822;7.126;2022-12-22T03:03:48;2.25;;;1.40;;
9140;SDS011;46330;50.822;7.126;2022-12-22T03:09:18;1.30;;;1.20;;
9140;SDS011;46330;50.822;7.126;2022-12-22T03:12:04;1.38;;;1.10;;
9140;SDS011;46330;50.822;7.126;2022-12-22T03:17:35;1.10;;;1.00;;
9140;SDS011;46330;50.822;7.126;2022-12-22T03:20:20;1.55;;;1.20;;
9140;SDS011;46330;50.822;7.126;2022-12-22T03:23:06;1.52;;;1.27;;
9140;SDS011;46330;50.822;7.126;2022-12-22T03:25:51;1.30;;;1.20;;
9140;SDS011;46330;50.822;7.126;2022-12-22T03:28:20;1.60;;;1.30;;
9140;SDS011;46330;50.822;7.126;2022-12-22T03:30:52;2.97;;;1.25;;
9140;SDS011;46330;50.822;7.126;2022-12-22T03:33:23;2.17;;;1.30;;
9140;SDS011;46330;50.822;7.126;2022-12-22T03:35:51;1.48;;;1.20;;
9140;SDS011;46330;50.822;7.126;2022-12-22T03:38:19;1.17;;;1.05;;
9140;SDS011;46330;50.822;7.126;2022-12-22T03:40:46;1.52;;;1.10;;
9140;SDS011;46330;50.822;7.126;2022-12-22T03:43:15;1.52;;;0.95;;
9140;SDS011;46330;50.822;7.126;2022-12-22T03:46:01;3.67;;;0.93;;
9140;SDS011;46330;50.822;7.126;2022-12-22T03:48:48;1.40;;;0.90;;
9140;SDS011;46330;50.822;7.126;2022-12-22T03:51:35;1.50;;;1.10;;
9140;SDS011;46330;50.822;7.126;2022-12-22T03:54:05;1.73;;;0.70;;
9140;SDS011;46330;50.822;7.126;2022-12-22T03:56:33;0.98;;;0.80;;
9140;SDS011;46330;50.822;7.126;2022-12-22T03:59:01;2.00;;;0.90;;
9140;SDS011;46330;50.822;7.126;2022-12-22T04:01:29;1.63;;;0.77;;
9140;SDS011;46330;50.822;7.126;2022-12-22T04:03:58;1.58;;;0.82;;
9140;SDS011;46330;50.822;7.126;2022-12-22T04:06:26;0.80;;;0.73;;
9140;SDS011;46330;50.822;7.126;2022-12-22T04:08:54;0.88;;;0.60;;
9140;SDS011;46330;50.822;7.126;2022-12-22T04:11:22;0.70;;;0.70;;
9140;SDS011;46330;50.822;7.126;2022-12-22T04:14:07;1.20;;;0.70;;
9140;SDS011;46330;50.822;7.126;2022-12-22T04:16:35;1.00;;;0.88;;
9140;SDS011;46330;50.822;7.126;2022-12-22T04:19:04;1.20;;;0.75;;
9140;SDS011;46330;50.822;7.126;2022-12-22T04:21:33;5.47;;;0.90;;
9140;SDS011;46330;50.822;7.126;2022-12-22T04:24:01;1.10;;;0.93;;
9140;SDS011;46330;50.822;7.126;2022-12-22T04:26:29;2.10;;;1.00;;
9140;SDS011;46330;50.822;7.126;2022-12-22T04:28:57;1.95;;;1.08;;
9140;SDS011;46330;50.822;7.126;2022-12-22T04:31:25;2.08;;;1.00;;
9140;SDS011;46330;50.822;7.126;2022-12-22T04:33:53;1.00;;;0.80;;
9140;SDS011;46330;50.822;7.126;2022-12-22T04:36:22;1.30;;;0.90;;
9140;SDS011;46330;50.822;7.126;2022-12-22T04:38:50;2.22;;;1.10;;
9140;SDS011;46330;50.822;7.126;2022-12-22T04:41:17;1.15;;;0.90;;
9140;SDS011;46330;50.822;7.126;2022-12-22T04:43:45;0.88;;;0.88;;
9140;SDS011;46330;50.822;7.126;2022-12-22T04:46:13;1.23;;;1.00;;
9140;SDS011;46330;50.822;7.126;2022-12-22T04:48:41;1.38;;;0.90;;
9140;SDS011;46330;50.822;7.126;2022-12-22T04:51:09;1.35;;;1.00;;
9140;SDS011;46330;50.822;7.126;2022-12-22T04:53:38;2.22;;;1.05;;
9140;SDS011;46330;50.822;7.126;2022-12-22T04:56:06;1.73;;;1.30;;
9140;SDS011;46330;50.822;7.126;2022-12-22T04:58:35;4.35;;;1.10;;
9140;SDS011;46330;50.822;7.126;2022-12-22T05:01:07;3.90;;;1.10;;
9140;SDS011;46330;50.822;7.126;2022-12-22T05:03:36;0.80;;;0.80;;
9140;SDS011;46330;50.822;7.126;2022-12-22T05:06:04;1.42;;;0.93;;
9140;SDS011;46330;50.822;7.126;2022-12-22T05:08:32;2.13;;;1.10;;
9140;SDS011;46330;50.822;7.126;2022-12-22T05:11:02;3.35;;;1.02;;
9140;SDS011;46330;50.822;7.126;2022-12-22T05:13:30;1.40;;;1.30;;
9140;SDS011;46330;50.822;7.126;2022-12-22T05:16:01;3.95;;;1.30;;
9140;SDS011;46330;50.822;7.126;2022-12-22T05:18:31;1.63;;;1.15;;
9140;SDS011;46330;50.822;7.126;2022-12-22T05:21:01;1.52;;;1.10;;
9140;SDS011;46330;50.822;7.126;2022-12-22T05:23:30;2.00;;;1.20;;
9140;SDS011;46330;50.822;7.126;2022-12-22T05:25:58;1.17;;;1.05;;
9140;SDS011;46330;50.822;7.126;2022-12-22T05:28:27;1.40;;;0.93;;
9140;SDS011;46330;50.822;7.126;2022-12-22T05:30:55;1.30;;;1.17;;
9140;SDS011;46330;50.822;7.126;2022-12-22T05:33:23;1.00;;;0.90;;
9140;SDS011;46330;50.822;7.126;2022-12-22T05:35:51;2.55;;;1.10;;
9140;SDS011;46330;50.822;7.126;2022-12-22T05:38:19;1.33;;;1.23;;
9140;SDS011;46330;50.822;7.126;2022-12-22T05:40:47;1.52;;;1.20;;
9140;SDS011;46330;50.822;7.126;2022-12-22T05:43:14;6.50;;;2.85;;
9140;SDS011;46330;50.822;7.126;2022-12-22T05:45:44;1.50;;;1.40;;
9140;SDS011;46330;50.822;7.126;2022-12-22T05:48:13;2.00;;;1.40;;
9140;SDS011;46330;50.822;7.126;2022-12-22T05:50:47;1.45;;;1.10;;
9140;SDS011;46330;50.822;7.126;2022-12-22T05:53:15;1.38;;;1.13;;
9140;SDS011;46330;50.822;7.126;2022-12-22T05:55:43;2.55;;;1.50;;
9140;SDS011;46330;50.822;7.126;2022-12-22T05:58:11;2.75;;;1.50;;
9140;SDS011;46330;50.822;7.126;2022-12-22T06:00:38;1.45;;;1.23;;
9140;SDS011;46330;50.822;7.126;2022-12-22T06:03:08;1.67;;;1.50;;
9140;SDS011;46330;50.822;7.126;2022-12-22T06:05:36;3.83;;;2.10;;
9140;SDS011;46330;50.822;7.126;2022-12-22T06:08:04;1.90;;;1.50;;
9140;SDS011;46330;50.822;7.126;2022-12-22T06:10:31;2.70;;;1.52;;
9140;SDS011;46330;50.822;7.126;2022-12-22T06:12:59;2.58;;;1.58;;
9140;SDS011;46330;50.822;7.126;2022-12-22T06:15:28;1.65;;;1.10;;
9140;SDS011;46330;50.822;7.126;2022-12-22T06:17:56;2.72;;;0.80;;
9140;SDS011;46330;50.822;7.126;2022-12-22T06:20:25;0.80;;;0.60;;
9140;SDS011;46330;50.822;7.126;2022-12-22T06:22:52;1.27;;;0.70;;
9140;SDS011;46330;50.822;7.126;2022-12-22T06:25:20;1.33;;;0.63;;
9140;SDS011;46330;50.822;7.126;2022-12-22T06:27:48;1.95;;;0.60;;
9140;SDS011;46330;50.822;7.126;2022-12-22T06:30:16;1.80;;;0.80;;
9140;SDS011;46330;50.822;7.126;2022-12-22T06:32:43;2.20;;;0.80;;
9140;SDS011;46330;50.822;7.126;2022-12-22T06:35:11;0.98;;;0.80;;
9140;SDS011;46330;50.822;7.126;2022-12-22T06:37:41;1.17;;;0.77;;
9140;SDS011;46330;50.822;7.126;2022-12-22T06:40:09;3.28;;;1.08;;
9140;SDS011;46330;50.822;7.126;2022-12-22T06:42:37;5.28;;;2.75;;
9140;SDS011;46330;50.822;7.126;2022-12-22T06:45:31;2.83;;;1.48;;
9140;SDS011;46330;50.822;7.126;2022-12-22T06:47:59;4.65;;;2.05;;
9140;SDS011;46330;50.822;7.126;2022-12-22T06:50:26;3.53;;;1.40;;
9140;SDS011;46330;50.822;7.126;2022-12-22T06:52:56;1.95;;;1.27;;
9140;SDS011;46330;50.822;7.126;2022-12-22T06:55:24;1.92;;;1.40;;
9140;SDS011;46330;50.822;7.126;2022-12-22T06:57:52;1.95;;;1.20;;
9140;SDS011;46330;50.822;7.126;2022-12-22T07:00:20;3.10;;;1.33;;
9140;SDS011;46330;50.822;7.126;2022-12-22T07:02:48;1.98;;;1.35;;
9140;SDS011;46330;50.822;7.126;2022-12-22T07:05:16;6.43;;;3.67;;
9140;SDS011;46330;50.822;7.126;2022-12-22T07:07:44;3.20;;;2.38;;
9140;SDS011;46330;50.822;7.126;2022-12-22T07:10:13;3.25;;;2.20;;
9140;SDS011;46330;50.822;7.126;2022-12-22T07:12:41;3.13;;;2.30;;
9140;SDS011;46330;50.822;7.126;2022-12-22T07:15:09;5.53;;;2.40;;
9140;SDS011;46330;50.822;7.126;2022-12-22T07:17:37;3.38;;;2.08;;
9140;SDS011;46330;50.822;7.126;2022-12-22T07:20:07;2.63;;;2.10;;
9140;SDS011;46330;50.822;7.126;2022-12-22T07:22:35;3.22;;;2.10;;
9140;SDS011;46330;50.822;7.126;2022-12-22T07:25:03;2.92;;;2.10;;
9140;SDS011;46330;50.822;7.126;2022-12-22T07:27:33;3.95;;;1.85;;
9140;SDS011;46330;50.822;7.126;2022-12-22T07:30:00;4.63;;;2.10;;
9140;SDS011;46330;50.822;7.126;2022-12-22T07:32:28;2.97;;;1.55;;
9140;SDS011;46330;50.822;7.126;2022-12-22T07:34:56;2.63;;;1.45;;
9140;SDS011;46330;50.822;7.126;2022-12-22T07:37:30;1.10;;;0.98;;
9140;SDS011;46330;50.822;7.126;2022-12-22T07:39:58;1.73;;;0.90;;
9140;SDS011;46330;50.822;7.126;2022-12-22T07:42:25;3.38;;;0.93;;
9140;SDS011;46330;50.822;7.126;2022-12-22T07:45:12;5.88;;;2.80;;
9140;SDS011;46330;50.822;7.126;2022-12-22T07:47:40;4.88;;;1.60;;
9140;SDS011;46330;50.822;7.126;2022-12-22T07:50:08;2.40;;;1.33;;
9140;SDS011;46330;50.822;7.126;2022-12-22T07:52:54;6.97;;;1.60;;
9140;SDS011;46330;50.822;7.126;2022-12-22T07:55:22;4.72;;;1.50;;
9140;SDS011;46330;50.822;7.126;2022-12-22T07:57:51;6.32;;;1.73;;
9140;SDS011;46330;50.822;7.126;2022-12-22T08:00:21;2.25;;;1.70;;
9140;SDS011;46330;50.822;7.126;2022-12-22T08:02:50;2.33;;;1.42;;
9140;SDS011;46330;50.822;7.126;2022-12-22T08:05:20;3.38;;;1.52;;
9140;SDS011;46330;50.822;7.126;2022-12-22T08:07:48;2.03;;;1.50;;
9140;SDS011;46330;50.822;7.126;2022-12-22T08:10:17;4.43;;;1.90;;
9140;SDS011;46330;50.822;7.126;2022-12-22T08:12:45;5.32;;;1.73;;
9140;SDS011;46330;50.822;7.126;2022-12-22T08:15:13;2.92;;;2.17;;
9140;SDS011;46330;50.822;7.126;2022-12-22T08:17:43;6.55;;;3.47;;
9140;SDS011;46330;50.822;7.126;2022-12-22T08:20:10;4.40;;;2.65;;
9140;SDS011;46330;50.822;7.126;2022-12-22T08:22:38;5.18;;;2.70;;
9140;SDS011;46330;50.822;7.126;2022-12-22T08:25:06;6.30;;;2.65;;
9140;SDS011;46330;50.822;7.126;2022-12-22T08:27:35;5.60;;;2.95;;
9140;SDS011;46330;50.822;7.126;2022-12-22T08:30:09;4.05;;;2.78;;
9140;SDS011;46330;50.822;7.126;2022-12-22T08:32:38;6.25;;;3.08;;
9140;SDS011;46330;50.822;7.126;2022-12-22T08:35:09;4.95;;;3.38;;
9140;SDS011;46330;50.822;7.126;2022-12-22T08:37:38;6.53;;;3.50;;
9140;SDS011;46330;50.822;7.126;2022-12-22T08:40:09;10.90;;;3.45;;
9140;SDS011;46330;50.822;7.126;2022-12-22T08:42:40;9.02;;;4.18;;
9140;SDS011;46330;50.822;7.126;2022-12-22T08:45:08;7.80;;;4.55;;
9140;SDS011;46330;50.822;7.126;2022-12-22T08:47:36;10.50;;;6.07;;
9140;SDS011;46330;50.822;7.126;2022-12-22T08:50:05;9.98;;;5.70;;
9140;SDS011;46330;50.822;7.126;2022-12-22T08:52:35;9.27;;;5.40;;
9140;SDS011;46330;50.822;7.126;2022-12-22T08:55:03;8.85;;;4.90;;
9140;SDS011;46330;50.822;7.126;2022-12-22T08:57:31;10.05;;;6.20;;
9140;SDS011;46330;50.822;7.126;2022-12-22T08:59:59;9.93;;;6.32;;
9140;SDS011;46330;50.822;7.126;2022-12-22T09:02:26;9.18;;;6.45;;
9140;SDS011;46330;50.822;7.126;2022-12-22T09:04:54;12.52;;;7.75;;
9140;SDS011;46330;50.822;7.126;2022-12-22T09:07:22;14.10;;;8.65;;
9140;SDS011;46330;50.822;7.126;2022-12-22T09:09:51;14.75;;;8.15;;
9140;SDS011;46330;50.822;7.126;2022-12-22T09:12:19;14.10;;;8.35;;
9140;SDS011;46330;50.822;7.126;2022-12-22T09:14:47;13.18;;;7.85;;
9140;SDS011;46330;50.822;7.126;2022-12-22T09:17:15;12.82;;;8.05;;
9140;SDS011;46330;50.822;7.126;2022-12-22T09:19:43;13.27;;;7.88;;
9140;SDS011;46330;50.822;7.126;2022-12-22T09:22:11;11.35;;;7.10;;
9140;SDS011;46330;50.822;7.126;2022-12-22T09:24:38;13.32;;;7.85;;
9140;SDS011;46330;50.822;7.126;2022-12-22T09:27:08;12.18;;;7.47;;
9140;SDS011;46330;50.822;7.126;2022-12-22T09:29:35;13.30;;;7.30;;
9140;SDS011;46330;50.822;7.126;2022-12-22T09:32:04;16.30;;;7.85;;
9140;SDS011;46330;50.822;7.126;2022-12-22T09:34:32;13.52;;;7.63;;
9140;SDS011;46330;50.822;7.126;2022-12-22T09:37:00;15.85;;;8.52;;
9140;SDS011;46330;50.822;7.126;2022-12-22T09:39:28;14.82;;;8.13;;
9140;SDS011;46330;50.822;7.126;2022-12-22T09:41:56;14.85;;;8.60;;
9140;SDS011;46330;50.822;7.126;2022-12-22T09:44:27;16.00;;;8.82;;
9140;SDS011;46330;50.822;7.126;2022-12-22T09:46:58;15.75;;;9.07;;
9140;SDS011;46330;50.822;7.126;2022-12-22T09:49:27;20.38;;;10.40;;
9140;SDS011;46330;50.822;7.126;2022-12-22T09:51:56;17.90;;;10.05;;
9140;SDS011;46330;50.822;7.126;2022-12-22T09:54:26;18.42;;;10.88;;
9140;SDS011;46330;50.822;7.126;2022-12-22T09:56:55;20.05;;;11.40;;
9140;SDS011;46330;50.822;7.126;2022-12-22T09:59:26;23.85;;;13.27;;
9140;SDS011;46330;50.822;7.126;2022-12-22T10:01:56;24.67;;;12.55;;
9140;SDS011;46330;50.822;7.126;2022-12-22T10:04:38;26.30;;;12.70;;
9140;SDS011;46330;50.822;7.126;2022-12-22T10:07:17;22.67;;;12.45;;
9140;SDS011;46330;50.822;7.126;2022-12-22T10:09:51;19.35;;;11.50;;
9140;SDS011;46330;50.822;7.126;2022-12-22T10:12:21;23.60;;;13.15;;
9140;SDS011;46330;50.822;7.126;2022-12-22T10:14:53;21.70;;;12.35;;
9140;SDS011;46330;50.822;7.126;2022-12-22T10:17:22;22.10;;;12.23;;
9140;SDS011;46330;50.822;7.126;2022-12-22T10:19:53;21.95;;;12.05;;
9140;SDS011;46330;50.822;7.126;2022-12-22T10:22:35;22.45;;;10.80;;
9140;SDS011;46330;50.822;7.126;2022-12-22T10:25:22;22.50;;;11.20;;
9140;SDS011;46330;50.822;7.126;2022-12-22T10:28:14;19.77;;;10.75;;
9140;SDS011;46330;50.822;7.126;2022-12-22T10:30:47;25.67;;;12.32;;
9140;SDS011;46330;50.822;7.126;2022-12-22T10:33:16;23.13;;;12.73;;
9140;SDS011;46330;50.822;7.126;2022-12-22T10:35:46;19.58;;;11.35;;
9140;SDS011;46330;50.822;7.126;2022-12-22T10:38:18;20.83;;;12.07;;
9140;SDS011;46330;50.822;7.126;2022-12-22T10:40:50;17.60;;;10.10;;
9140;SDS011;46330;50.822;7.126;2022-12-22T10:43:28;17.70;;;11.02;;
9140;SDS011;46330;50.822;7.126;2022-12-22T10:45:59;17.20;;;10.63;;
9140;SDS011;46330;50.822;7.126;2022-12-22T10:48:30;16.27;;;10.55;;
9140;SDS011;46330;50.822;7.126;2022-12-22T10:51:00;17.50;;;10.07;;
9140;SDS011;46330;50.822;7.126;2022-12-22T10:53:40;16.27;;;10.00;;
9140;SDS011;46330;50.822;7.126;2022-12-22T10:56:17;17.98;;;9.82;;
9140;SDS011;46330;50.822;7.126;2022-12-22T10:58:49;16.95;;;10.02;;
9140;SDS011;46330;50.822;7.126;2022-12-22T11:01:24;17.92;;;10.63;;
9140;SDS011;46330;50.822;7.126;2022-12-22T11:03:54;17.90;;;10.93;;
9140;SDS011;46330;50.822;7.126;2022-12-22T11:06:22;21.25;;;11.20;;
9140;SDS011;46330;50.822;7.126;2022-12-22T11:08:50;18.75;;;10.52;;
9140;SDS011;46330;50.822;7.126;2022-12-22T11:11:22;17.63;;;9.95;;
9140;SDS011;46330;50.822;7.126;2022-12-22T11:16:41;17.00;;;9.50;;
9140;SDS011;46330;50.822;7.126;2022-12-22T11:19:29;18.67;;;11.32;;
9140;SDS011;46330;50.822;7.126;2022-12-22T11:22:22;18.98;;;10.10;;
9140;SDS011;46330;50.822;7.126;2022-12-22T11:25:02;18.73;;;10.38;;
9140;SDS011;46330;50.822;7.126;2022-12-22T11:27:42;18.65;;;11.18;;
9140;SDS011;46330;50.822;7.126;2022-12-22T11:30:18;21.05;;;10.60;;
9140;SDS011;46330;50.822;7.126;2022-12-22T11:32:51;17.25;;;10.50;;
9140;SDS011;46330;50.822;7.126;2022-12-22T11:35:34;18.20;;;10.85;;
9140;SDS011;46330;50.822;7.126;2022-12-22T11:38:12;16.35;;;10.40;;
9140;SDS011;46330;50.822;7.126;2022-12-22T11:40:48;18.95;;;11.30;;
9140;SDS011;46330;50.822;7.126;2022-12-22T11:43:22;16.25;;;10.38;;
9140;SDS011;46330;50.822;7.126;2022-12-22T11:46:01;14.88;;;10.90;;
9140;SDS011;46330;50.822;7.126;2022-12-22T11:48:48;16.38;;;10.15;;
9140;SDS011;46330;50.822;7.126;2022-12-22T11:51:32;13.80;;;9.48;;
9140;SDS011;46330;50.822;7.126;2022-12-22T11:54:20;17.27;;;9.35;;
9140;SDS011;46330;50.822;7.126;2022-12-22T11:57:04;16.20;;;9.60;;
9140;SDS011;46330;50.822;7.126;2022-12-22T11:59:44;15.35;;;9.60;;
9140;SDS011;46330;50.822;7.126;2022-12-22T12:05:41;16.30;;;9.40;;
9140;SDS011;46330;50.822;7.126;2022-12-22T12:08:24;17.38;;;9.95;;
9140;SDS011;46330;50.822;7.126;2022-12-22T12:11:02;14.77;;;9.30;;
9140;SDS011;46330;50.822;7.126;2022-12-22T12:13:46;15.07;;;9.82;;
9140;SDS011;46330;50.822;7.126;2022-12-22T12:16:23;13.77;;;9.35;;
9140;SDS011;46330;50.822;7.126;2022-12-22T12:19:17;15.35;;;9.43;;
9140;SDS011;46330;50.822;7.126;2022-12-22T12:24:35;13.48;;;9.02;;
9140;SDS011;46330;50.822;7.126;2022-12-22T12:27:10;13.88;;;8.85;;
9140;SDS011;46330;50.822;7.126;2022-12-22T12:29:53;12.15;;;7.97;;
9140;SDS011;46330;50.822;7.126;2022-12-22T12:32:49;13.48;;;7.72;;
9140;SDS011;46330;50.822;7.126;2022-12-22T12:35:33;14.75;;;8.25;;
9140;SDS011;46330;50.822;7.126;2022-12-22T12:38:11;12.93;;;7.47;;
9140;SDS011;46330;50.822;7.126;2022-12-22T12:41:05;14.67;;;8.07;;
9140;SDS011;46330;50.822;7.126;2022-12-22T12:43:40;16.67;;;8.15;;
9140;SDS011;46330;50.822;7.126;2022-12-22T12:55:33;13.20;;;7.45;;
9140;SDS011;46330;50.822;7.126;2022-12-22T13:10:38;15.60;;;7.90;;
9140;SDS011;46330;50.822;7.126;2022-12-22T13:13:12;11.85;;;7.70;;
9140;SDS011;46330;50.822;7.126;2022-12-22T13:18:49;13.63;;;6.90;;
9140;SDS011;46330;50.822;7.126;2022-12-22T13:21:18;13.70;;;7.72;;
9140;SDS011;46330;50.822;7.126;2022-12-22T13:24:12;15.40;;;7.15;;
9140;SDS011;46330;50.822;7.126;2022-12-22T13:26:53;11.43;;;6.85;;
9140;SDS011;46330;50.822;7.126;2022-12-22T13:29:26;10.73;;;6.85;;
9140;SDS011;46330;50.822;7.126;2022-12-22T13:31:57;13.10;;;6.63;;
9140;SDS011;46330;50.822;7.126;2022-12-22T13:34:37;11.73;;;6.53;;
9140;SDS011;46330;50.822;7.126;2022-12-22T13:37:28;11.43;;;5.95;;
9140;SDS011;46330;50.822;7.126;2022-12-22T13:40:06;10.80;;;5.53;;
9140;SDS011;46330;50.822;7.126;2022-12-22T13:42:44;13.18;;;6.28;;
9140;SDS011;46330;50.822;7.126;2022-12-22T13:45:16;11.25;;;6.03;;
9140;SDS011;46330;50.822;7.126;2022-12-22T13:50:18;12.50;;;6.55;;
9140;SDS011;46330;50.822;7.126;2022-12-22T13:52:48;12.45;;;7.05;;
9140;SDS011;46330;50.822;7.126;2022-12-22T13:55:19;12.68;;;7.95;;
9140;SDS011;46330;50.822;7.126;2022-12-22T13:57:52;14.45;;;6.68;;
9140;SDS011;46330;50.822;7.126;2022-12-22T14:00:25;11.15;;;7.10;;
9140;SDS011;46330;50.822;7.126;2022-12-22T14:02:54;11.13;;;6.50;;
9140;SDS011;46330;50.822;7.126;2022-12-22T14:05:26;10.95;;;7.07;;
9140;SDS011;46330;50.822;7.126;2022-12-22T14:07:58;10.90;;;6.50;;
9140;SDS011;46330;50.822;7.126;2022-12-22T14:10:34;10.25;;;6.47;;
9140;SDS011;46330;50.822;7.126;2022-12-22T14:13:10;16.08;;;7.28;;
9140;SDS011;46330;50.822;7.126;2022-12-22T14:18:12;11.13;;;6.32;;
9140;SDS011;46330;50.822;7.126;2022-12-22T14:20:41;13.20;;;7.00;;
9140;SDS011;46330;50.822;7.126;2022-12-22T14:23:15;12.90;;;6.97;;
9140;SDS011;46330;50.822;7.126;2022-12-22T14:25:45;11.82;;;7.15;;
9140;SDS011;46330;50.822;7.126;2022-12-22T14:28:17;13.98;;;7.68;;
9140;SDS011;46330;50.822;7.126;2022-12-22T14:30:49;13.70;;;7.30;;
9140;SDS011;46330;50.822;7.126;2022-12-22T14:33:25;12.70;;;6.93;;
9140;SDS011;46330;50.822;7.126;2022-12-22T14:38:49;11.90;;;7.10;;
9140;SDS011;46330;50.822;7.126;2022-12-22T14:41:20;12.85;;;6.95;;
9140;SDS011;46330;50.822;7.126;2022-12-22T14:44:17;13.18;;;7.40;;
9140;SDS011;46330;50.822;7.126;2022-12-22T14:49:27;16.05;;;7.72;;
9140;SDS011;46330;50.822;7.126;2022-12-22T14:51:56;21.38;;;8.45;;
9140;SDS011;46330;50.822;7.126;2022-12-22T14:54:29;33.92;;;9.98;;
9140;SDS011;46330;50.822;7.126;2022-12-22T14:56:58;28.63;;;9.75;;
9140;SDS011;46330;50.822;7.126;2022-12-22T14:59:39;23.40;;;9.20;;
9140;SDS011;46330;50.822;7.126;2022-12-22T15:02:17;21.88;;;9.20;;
9140;SDS011;46330;50.822;7.126;2022-12-22T15:04:48;18.08;;;9.20;;
9140;SDS011;46330;50.822;7.126;2022-12-22T15:07:41;18.27;;;9.00;;
9140;SDS011;46330;50.822;7.126;2022-12-22T15:10:33;13.95;;;8.13;;
9140;SDS011;46330;50.822;7.126;2022-12-22T15:13:04;14.43;;;8.80;;
9140;SDS011;46330;50.822;7.126;2022-12-22T15:15:39;17.35;;;8.93;;
9140;SDS011;46330;50.822;7.126;2022-12-22T15:18:10;14.50;;;8.63;;
9140;SDS011;46330;50.822;7.126;2022-12-22T15:20:39;16.52;;;8.88;;
9140;SDS011;46330;50.822;7.126;2022-12-22T15:23:09;13.85;;;8.85;;
9140;SDS011;46330;50.822;7.126;2022-12-22T15:25:39;13.15;;;8.63;;
9140;SDS011;46330;50.822;7.126;2022-12-22T15:28:07;17.15;;;9.75;;
9140;SDS011;46330;50.822;7.126;2022-12-22T15:30:35;18.13;;;11.85;;
9140;SDS011;46330;50.822;7.126;2022-12-22T15:33:07;15.88;;;10.13;;
9140;SDS011;46330;50.822;7.126;2022-12-22T15:35:38;18.90;;;11.27;;
9140;SDS011;46330;50.822;7.126;2022-12-22T15:38:08;16.52;;;9.98;;
9140;SDS011;46330;50.822;7.126;2022-12-22T15:40:39;15.73;;;9.70;;
9140;SDS011;46330;50.822;7.126;2022-12-22T15:43:06;17.10;;;9.65;;
9140;SDS011;46330;50.822;7.126;2022-12-22T15:45:54;16.77;;;9.30;;
9140;SDS011;46330;50.822;7.126;2022-12-22T15:48:26;18.13;;;9.90;;
9140;SDS011;46330;50.822;7.126;2022-12-22T15:50:56;18.38;;;9.68;;
9140;SDS011;46330;50.822;7.126;2022-12-22T15:53:25;16.30;;;9.98;;
9140;SDS011;46330;50.822;7.126;2022-12-22T15:55:53;17.30;;;9.10;;
9140;SDS011;46330;50.822;7.126;2022-12-22T15:58:24;16.90;;;11.55;;
9140;SDS011;46330;50.822;7.126;2022-12-22T16:00:54;22.20;;;13.27;;
9140;SDS011;46330;50.822;7.126;2022-12-22T16:03:22;21.38;;;11.05;;
9140;SDS011;46330;50.822;7.126;2022-12-22T16:05:51;22.30;;;11.98;;
9140;SDS011;46330;50.822;7.126;2022-12-22T16:08:20;20.33;;;10.10;;
9140;SDS011;46330;50.822;7.126;2022-12-22T16:10:53;32.95;;;15.82;;
9140;SDS011;46330;50.822;7.126;2022-12-22T16:13:21;28.63;;;13.07;;
9140;SDS011;46330;50.822;7.126;2022-12-22T16:15:52;23.17;;;10.73;;
9140;SDS011;46330;50.822;7.126;2022-12-22T16:18:20;25.02;;;12.07;;
9140;SDS011;46330;50.822;7.126;2022-12-22T16:20:48;49.63;;;17.15;;
9140;SDS011;46330;50.822;7.126;2022-12-22T16:23:19;41.53;;;15.73;;
9140;SDS011;46330;50.822;7.126;2022-12-22T16:25:48;43.78;;;14.88;;
9140;SDS011;46330;50.822;7.126;2022-12-22T16:28:26;66.72;;;22.38;;
9140;SDS011;46330;50.822;7.126;2022-12-22T16:30:55;69.93;;;21.40;;
9140;SDS011;46330;50.822;7.126;2022-12-22T16:33:23;19.92;;;10.32;;
9140;SDS011;46330;50.822;7.126;2022-12-22T16:35:51;12.30;;;7.72;;
9140;SDS011;46330;50.822;7.126;2022-12-22T16:38:20;13.05;;;7.47;;
9140;SDS011;46330;50.822;7.126;2022-12-22T16:40:49;12.25;;;7.28;;
9140;SDS011;46330;50.822;7.126;2022-12-22T16:43:20;10.45;;;7.03;;
9140;SDS011;46330;50.822;7.126;2022-12-22T16:46:10;21.90;;;12.90;;
9140;SDS011;46330;50.822;7.126;2022-12-22T16:48:41;19.10;;;9.52;;
9140;SDS011;46330;50.822;7.126;2022-12-22T16:51:13;21.73;;;9.25;;
9140;SDS011;46330;50.822;7.126;2022-12-22T16:53:45;14.75;;;7.97;;
9140;SDS011;46330;50.822;7.126;2022-12-22T16:56:13;11.40;;;6.07;;